Time;durP1;ratioP1;P1;durP2;ratioP2;P2;SDS_P1;SDS_P2;PMS_P1;PMS_P2;Temp;Humidity;BMP_temperature;BMP_pressure;BME280_temperature;BME280_humidity;BME280_pressure;Samples;Min_cycle;Max_cycle;Signal;HPM_P1;HPM_P2
2023/07/26 00:03:12;;;;;;;17.65;5.72;;;;;;;;;;10416704;28;20053;-71
2023/07/26 00:08:12;;;;;;;26.05;6.13;;;;;;;;;;10416737;28;20021;-69
2023/07/26 00:13:14;;;;;;;18.25;5.93;;;;;;;;;;10426747;28;20025;-70
2023/07/26 00:18:15;;;;;;;15.45;6.05;;;;;;;;;;10457304;28;20021;-70
2023/07/26 00:23:15;;;;;;;25.63;6.32;;;;;;;;;;10458258;28;20417;-70
2023/07/26 00:28:15;;;;;;;27.57;6.07;;;;;;;;;;10417510;28;20051;-70
2023/07/26 00:33:15;;;;;;;13.43;5.88;;;;;;;;;;10415933;28;20072;-70
2023/07/26 00:38:16;;;;;;;16.83;5.80;;;;;;;;;;10443578;28;20032;-70
2023/07/26 00:43:16;;;;;;;15.07;6.00;;;;;;;;;;10439118;28;20663;-71
2023/07/26 00:48:16;;;;;;;18.73;6.15;;;;;;;;;;10456753;28;20021;-70
2023/07/26 00:53:17;;;;;;;21.07;7.07;;;;;;;;;;10456622;28;20078;-70
2023/07/26 00:58:17;;;;;;;19.10;5.80;;;;;;;;;;10456500;28;20035;-72
2023/07/26 01:03:17;;;;;;;15.97;5.87;;;;;;;;;;10456082;28;20032;-71
2023/07/26 01:08:20;;;;;;;15.37;5.80;;;;;;;;;;10455572;28;20561;-71
2023/07/26 01:13:26;;;;;;;17.02;5.85;;;;;;;;;;10445575;28;20263;-70
2023/07/26 01:18:27;;;;;;;20.95;6.38;;;;;;;;;;10414519;28;20021;-69
2023/07/26 01:23:27;;;;;;;16.27;5.63;;;;;;;;;;10444348;28;20330;-69
2023/07/26 01:28:27;;;;;;;19.40;6.30;;;;;;;;;;10446385;28;20017;-70
2023/07/26 01:33:28;;;;;;;13.05;5.88;;;;;;;;;;10435262;28;20183;-69
2023/07/26 01:38:29;;;;;;;18.02;5.78;;;;;;;;;;10425135;28;20104;-69
2023/07/26 01:43:30;;;;;;;19.15;6.10;;;;;;;;;;10455077;28;20326;-70
2023/07/26 01:48:30;;;;;;;15.48;6.03;;;;;;;;;;10454857;28;20086;-68
2023/07/26 01:53:30;;;;;;;19.90;5.70;;;;;;;;;;10441350;28;20017;-69
2023/07/26 01:58:31;;;;;;;19.33;7.30;;;;;;;;;;10447040;28;20043;-70
2023/07/26 02:03:31;;;;;;;13.52;5.53;;;;;;;;;;10454364;28;20094;-70
2023/07/26 02:08:31;;;;;;;17.67;6.40;;;;;;;;;;10454514;28;20029;-70
2023/07/26 02:13:32;;;;;;;24.57;6.40;;;;;;;;;;10459805;28;20079;-69
2023/07/26 02:18:32;;;;;;;17.98;6.93;;;;;;;;;;10462149;28;20020;-69
2023/07/26 02:23:32;;;;;;;25.63;6.27;;;;;;;;;;10462116;28;20021;-70
2023/07/26 02:28:33;;;;;;;18.45;5.95;;;;;;;;;;10461868;28;20317;-70
2023/07/26 02:33:33;;;;;;;20.23;5.70;;;;;;;;;;10461366;28;20293;-70
2023/07/26 02:38:33;;;;;;;15.63;5.97;;;;;;;;;;10456564;28;20370;-70
2023/07/26 02:43:34;;;;;;;19.45;7.60;;;;;;;;;;10456826;28;20430;-69
2023/07/26 02:48:34;;;;;;;18.15;6.65;;;;;;;;;;10461242;28;20031;-70
2023/07/26 02:53:34;;;;;;;12.27;5.60;;;;;;;;;;10438987;28;20063;-70
2023/07/26 02:58:35;;;;;;;19.67;6.10;;;;;;;;;;10438240;28;20344;-70
2023/07/26 03:03:35;;;;;;;14.40;5.60;;;;;;;;;;10460569;28;20028;-70
2023/07/26 03:08:35;;;;;;;17.27;6.40;;;;;;;;;;10460171;28;20035;-70
2023/07/26 03:13:35;;;;;;;19.60;6.60;;;;;;;;;;10430656;28;20013;-70
2023/07/26 03:18:36;;;;;;;21.92;6.45;;;;;;;;;;10418426;28;20272;-69
2023/07/26 03:23:37;;;;;;;19.23;6.45;;;;;;;;;;10426956;28;20013;-70
2023/07/26 03:28:37;;;;;;;15.27;7.45;;;;;;;;;;10437935;28;20224;-69
2023/07/26 03:33:37;;;;;;;27.83;7.20;;;;;;;;;;10402876;28;20022;-70
2023/07/26 03:38:38;;;;;;;18.95;7.40;;;;;;;;;;10406314;28;20049;-71
2023/07/26 03:43:38;;;;;;;16.05;6.50;;;;;;;;;;10406710;28;20093;-69
2023/07/26 03:48:38;;;;;;;16.30;6.55;;;;;;;;;;10406878;28;20211;-69
2023/07/26 03:53:38;;;;;;;16.53;7.23;;;;;;;;;;10396872;28;20064;-70
2023/07/26 03:58:39;;;;;;;16.05;7.47;;;;;;;;;;10401329;28;20107;-70
2023/07/26 04:03:39;;;;;;;22.20;7.38;;;;;;;;;;10421717;28;20029;-69
2023/07/26 04:08:40;;;;;;;20.67;6.77;;;;;;;;;;10409671;28;20017;-70
2023/07/26 04:13:40;;;;;;;24.02;6.85;;;;;;;;;;10417266;28;20124;-70
2023/07/26 04:18:41;;;;;;;25.23;8.00;;;;;;;;;;10415235;28;20050;-70
2023/07/26 04:23:42;;;;;;;23.65;7.60;;;;;;;;;;10445490;28;20351;-70
2023/07/26 04:28:42;;;;;;;17.38;6.93;;;;;;;;;;10456450;28;20214;-70
2023/07/26 04:33:43;;;;;;;21.60;7.30;;;;;;;;;;10418435;28;20025;-70
2023/07/26 04:38:43;;;;;;;23.88;8.43;;;;;;;;;;10407541;28;20351;-70
2023/07/26 04:43:43;;;;;;;27.90;8.13;;;;;;;;;;10411901;28;20037;-71
2023/07/26 04:48:43;;;;;;;28.58;7.57;;;;;;;;;;10411609;28;20025;-70
2023/07/26 04:53:44;;;;;;;17.48;7.30;;;;;;;;;;10449387;28;20171;-70
2023/07/26 04:58:44;;;;;;;21.83;7.32;;;;;;;;;;10452381;28;20048;-70
2023/07/26 05:03:44;;;;;;;23.20;7.27;;;;;;;;;;10452021;28;20037;-69
2023/07/26 05:08:47;;;;;;;18.05;7.68;;;;;;;;;;10281785;23;20059;-86
2023/07/26 05:13:47;;;;;;;20.40;7.05;;;;;;;;;;10218319;29;20062;-79
2023/07/26 05:18:47;;;;;;;23.08;7.07;;;;;;;;;;10217967;29;20035;-78
2023/07/26 05:23:48;;;;;;;16.02;6.75;;;;;;;;;;10218699;28;20026;-82
2023/07/26 05:28:48;;;;;;;26.65;7.82;;;;;;;;;;10232246;28;20030;-78
2023/07/26 05:33:48;;;;;;;16.67;6.10;;;;;;;;;;10218222;29;20031;-76
2023/07/26 05:38:50;;;;;;;14.48;6.60;;;;;;;;;;10236752;28;20090;-82
2023/07/26 05:43:50;;;;;;;14.85;6.38;;;;;;;;;;10219294;29;20029;-78
2023/07/26 05:48:53;;;;;;;16.08;7.32;;;;;;;;;;10242024;28;20027;-82
2023/07/26 05:53:53;;;;;;;18.23;5.72;;;;;;;;;;10227175;29;20050;-79
2023/07/26 05:58:54;;;;;;;19.05;6.88;;;;;;;;;;10226123;28;20058;-77
2023/07/26 06:03:54;;;;;;;14.93;6.65;;;;;;;;;;10243690;28;20023;-80
2023/07/26 06:08:54;;;;;;;13.25;6.68;;;;;;;;;;10226131;29;20066;-77
2023/07/26 06:13:54;;;;;;;21.98;7.03;;;;;;;;;;10227328;29;20031;-80
2023/07/26 06:18:55;;;;;;;24.67;6.57;;;;;;;;;;10225781;28;20031;-78
2023/07/26 06:23:55;;;;;;;22.02;6.00;;;;;;;;;;10228084;28;20038;-80
2023/07/26 06:28:55;;;;;;;23.48;7.20;;;;;;;;;;10225918;29;20027;-86
2023/07/26 06:33:55;;;;;;;21.30;6.53;;;;;;;;;;10225496;28;20027;-78
2023/07/26 06:38:56;;;;;;;22.23;5.85;;;;;;;;;;10224237;29;20024;-80
2023/07/26 06:43:56;;;;;;;34.15;6.60;;;;;;;;;;10243078;29;20090;-78
2023/07/26 06:48:56;;;;;;;27.85;5.82;;;;;;;;;;10224920;29;20356;-78
2023/07/26 06:53:56;;;;;;;21.20;7.55;;;;;;;;;;10226143;29;20023;-78
2023/07/26 06:58:57;;;;;;;22.05;5.20;;;;;;;;;;10225636;28;20015;-87
2023/07/26 07:03:58;;;;;;;20.80;5.32;;;;;;;;;;10225651;29;20023;-84
2023/07/26 07:08:59;;;;;;;13.98;5.10;;;;;;;;;;10225439;29;20056;-81
2023/07/26 07:13:59;;;;;;;21.15;4.85;;;;;;;;;;10226017;29;20027;-79
2023/07/26 07:18:59;;;;;;;19.23;4.50;;;;;;;;;;10226032;29;20122;-81
2023/07/26 07:24:00;;;;;;;40.03;5.65;;;;;;;;;;10223818;29;20019;-77
2023/07/26 07:29:00;;;;;;;18.27;4.22;;;;;;;;;;10225223;29;20037;-76
2023/07/26 07:34:00;;;;;;;16.17;4.53;;;;;;;;;;10224977;28;20444;-79
2023/07/26 07:39:00;;;;;;;22.55;5.53;;;;;;;;;;10226128;29;20023;-78
2023/07/26 07:44:01;;;;;;;18.98;4.95;;;;;;;;;;10227175;29;20149;-78
2023/07/26 07:49:01;;;;;;;22.55;4.38;;;;;;;;;;10225875;29;20019;-83
2023/07/26 07:54:01;;;;;;;16.40;4.13;;;;;;;;;;10228872;29;20035;-84
2023/07/26 07:59:02;;;;;;;16.37;3.80;;;;;;;;;;10245112;29;20022;-77
2023/07/26 08:04:02;;;;;;;18.88;4.63;;;;;;;;;;10224926;29;20023;-78
2023/07/26 08:09:02;;;;;;;20.53;4.13;;;;;;;;;;10235715;28;20047;-78
2023/07/26 08:14:03;;;;;;;16.47;3.47;;;;;;;;;;10226502;28;20427;-79
2023/07/26 08:19:03;;;;;;;25.77;4.60;;;;;;;;;;10228042;28;20050;-77
2023/07/26 08:24:04;;;;;;;22.07;3.80;;;;;;;;;;10227368;28;20028;-83
2023/07/26 08:29:04;;;;;;;20.70;3.87;;;;;;;;;;10226394;28;20027;-77
2023/07/26 08:34:04;;;;;;;25.88;4.43;;;;;;;;;;10222689;28;20271;-83
2023/07/26 08:39:05;;;;;;;16.52;3.65;;;;;;;;;;10215729;28;20027;-86
2023/07/26 08:44:07;;;;;;;14.77;3.22;;;;;;;;;;10230297;28;20042;-78
2023/07/26 08:49:07;;;;;;;26.10;3.78;;;;;;;;;;10222825;28;20479;-78
2023/07/26 08:54:08;;;;;;;15.63;3.85;;;;;;;;;;10224011;28;20094;-78
2023/07/26 08:59:08;;;;;;;21.52;4.03;;;;;;;;;;10219141;28;20110;-83
2023/07/26 09:04:10;;;;;;;19.73;3.37;;;;;;;;;;10214197;28;20031;-79
2023/07/26 09:09:11;;;;;;;12.55;3.50;;;;;;;;;;10219023;28;20520;-78
2023/07/26 09:14:11;;;;;;;23.45;4.35;;;;;;;;;;10211538;28;20030;-77
2023/07/26 09:19:11;;;;;;;26.75;4.03;;;;;;;;;;10213631;28;20114;-77
2023/07/26 09:24:12;;;;;;;10.70;3.40;;;;;;;;;;10221467;28;20030;-78
2023/07/26 09:29:13;;;;;;;20.40;4.60;;;;;;;;;;10208898;28;20032;-77
2023/07/26 09:34:14;;;;;;;13.52;3.65;;;;;;;;;;10229784;28;20035;-77
2023/07/26 09:39:16;;;;;;;14.38;3.40;;;;;;;;;;10227376;28;20027;-77
2023/07/26 09:44:25;;;;;;;20.75;3.60;;;;;;;;;;10201892;28;20038;-80
2023/07/26 09:49:32;;;;;;;17.42;3.53;;;;;;;;;;10211721;28;20145;-77
2023/07/26 09:54:33;;;;;;;16.73;4.30;;;;;;;;;;10214513;28;20028;-81
2023/07/26 09:59:33;;;;;;;20.73;3.85;;;;;;;;;;10200732;29;20032;-77
2023/07/26 10:04:34;;;;;;;20.27;3.90;;;;;;;;;;10212288;28;20101;-80
2023/07/26 10:09:34;;;;;;;17.50;3.80;;;;;;;;;;10222662;28;20031;-81
2023/07/26 10:14:35;;;;;;;14.43;4.00;;;;;;;;;;10214594;28;20051;-78
2023/07/26 10:19:36;;;;;;;21.55;3.90;;;;;;;;;;10220792;28;20059;-77
2023/07/26 10:24:40;;;;;;;20.52;4.13;;;;;;;;;;10216610;28;20091;-77
2023/07/26 10:29:40;;;;;;;14.13;4.13;;;;;;;;;;10221810;28;20055;-83
2023/07/26 10:34:41;;;;;;;20.43;3.90;;;;;;;;;;10235647;28;20114;-78
2023/07/26 10:39:41;;;;;;;16.35;6.45;;;;;;;;;;10210315;28;20090;-77
2023/07/26 10:44:41;;;;;;;23.05;3.90;;;;;;;;;;10211115;28;20083;-82
2023/07/26 10:49:48;;;;;;;17.87;4.93;;;;;;;;;;10212024;28;20106;-81
2023/07/26 10:54:50;;;;;;;21.35;3.78;;;;;;;;;;10234884;28;20569;-81
2023/07/26 10:59:50;;;;;;;18.23;4.10;;;;;;;;;;10234065;28;20098;-79
2023/07/26 11:04:51;;;;;;;13.30;4.55;;;;;;;;;;10226371;28;20610;-78
2023/07/26 11:09:51;;;;;;;16.92;4.53;;;;;;;;;;10232610;28;20251;-77
2023/07/26 11:14:54;;;;;;;14.80;3.90;;;;;;;;;;10228075;28;20031;-86
2023/07/26 11:19:55;;;;;;;14.60;3.83;;;;;;;;;;10218998;28;20501;-78
2023/07/26 11:24:55;;;;;;;34.88;10.98;;;;;;;;;;10207734;28;20035;-78
2023/07/26 11:29:59;;;;;;;19.48;6.25;;;;;;;;;;10228522;28;20444;-79
2023/07/26 11:34:59;;;;;;;15.18;5.55;;;;;;;;;;10228371;28;20039;-85
2023/07/26 11:40:03;;;;;;;21.75;4.45;;;;;;;;;;10221087;28;20027;-80
2023/07/26 11:45:07;;;;;;;20.67;4.18;;;;;;;;;;10223410;28;20090;-77
2023/07/26 11:50:07;;;;;;;17.05;4.60;;;;;;;;;;10200557;28;20063;-77
2023/07/26 11:55:08;;;;;;;24.70;4.40;;;;;;;;;;10234845;28;20400;-77
2023/07/26 12:00:09;;;;;;;19.05;4.45;;;;;;;;;;10226751;28;20062;-81
2023/07/26 12:05:15;;;;;;;23.20;5.20;;;;;;;;;;10207193;28;20051;-78
2023/07/26 12:10:29;;;;;;;16.55;5.03;;;;;;;;;;10221353;28;20516;-79
2023/07/26 12:15:30;;;;;;;18.05;4.00;;;;;;;;;;10225052;28;20069;-77
2023/07/26 12:20:30;;;;;;;21.63;4.87;;;;;;;;;;10205936;28;20348;-78
2023/07/26 12:25:35;;;;;;;20.95;3.55;;;;;;;;;;10220994;28;20044;-78
2023/07/26 12:30:35;;;;;;;24.23;4.82;;;;;;;;;;10223788;28;20039;-77
2023/07/26 12:35:35;;;;;;;11.90;3.77;;;;;;;;;;10229665;28;20039;-76
2023/07/26 12:40:35;;;;;;;17.27;4.07;;;;;;;;;;10221491;28;20475;-78
2023/07/26 12:45:36;;;;;;;12.48;4.28;;;;;;;;;;10210475;28;20027;-79
2023/07/26 12:50:39;;;;;;;17.77;4.80;;;;;;;;;;10211641;28;20483;-79
2023/07/26 12:55:39;;;;;;;22.40;4.70;;;;;;;;;;10209226;28;20039;-79
2023/07/26 13:00:40;;;;;;;11.93;3.60;;;;;;;;;;10214117;28;20038;-76
2023/07/26 13:05:40;;;;;;;17.95;4.22;;;;;;;;;;10199259;28;20055;-78
2023/07/26 13:10:40;;;;;;;20.00;4.50;;;;;;;;;;10211700;28;20023;-79
2023/07/26 13:15:41;;;;;;;14.90;5.43;;;;;;;;;;10204456;28;20040;-84
2023/07/26 13:20:41;;;;;;;12.90;3.90;;;;;;;;;;10212025;28;20043;-85
2023/07/26 13:25:41;;;;;;;18.43;4.80;;;;;;;;;;10207071;28;20291;-77
2023/07/26 13:30:42;;;;;;;17.48;3.97;;;;;;;;;;10222154;28;20347;-77
2023/07/26 13:35:42;;;;;;;19.60;3.95;;;;;;;;;;10196649;28;20070;-76
2023/07/26 13:40:42;;;;;;;12.25;3.67;;;;;;;;;;10202051;28;20113;-85
2023/07/26 13:45:42;;;;;;;11.60;3.20;;;;;;;;;;10210676;28;20036;-78
2023/07/26 13:50:44;;;;;;;19.90;4.03;;;;;;;;;;10217575;28;20049;-85
2023/07/26 13:55:44;;;;;;;18.42;4.47;;;;;;;;;;10209632;28;20035;-78
2023/07/26 14:00:45;;;;;;;17.08;4.13;;;;;;;;;;10195407;28;20056;-86
2023/07/26 14:05:46;;;;;;;14.15;3.85;;;;;;;;;;10207194;28;20066;-76
2023/07/26 14:10:46;;;;;;;13.40;3.50;;;;;;;;;;10215076;28;20474;-78
2023/07/26 14:15:46;;;;;;;13.33;3.63;;;;;;;;;;10208595;28;20039;-78
2023/07/26 14:20:48;;;;;;;12.60;3.43;;;;;;;;;;10231322;28;20043;-79
2023/07/26 14:25:48;;;;;;;19.90;4.10;;;;;;;;;;10216619;28;20126;-82
2023/07/26 14:30:49;;;;;;;18.97;3.63;;;;;;;;;;10207530;28;20031;-79
2023/07/26 14:35:49;;;;;;;17.87;4.00;;;;;;;;;;10226185;28;20504;-77
2023/07/26 14:40:49;;;;;;;16.30;4.50;;;;;;;;;;10227605;28;20283;-85
2023/07/26 14:45:50;;;;;;;17.30;4.28;;;;;;;;;;10213756;28;20042;-76
2023/07/26 14:50:51;;;;;;;15.35;4.65;;;;;;;;;;10229109;28;20411;-81
2023/07/26 14:55:52;;;;;;;10.75;3.40;;;;;;;;;;10218556;28;20046;-83
2023/07/26 15:00:54;;;;;;;10.52;3.80;;;;;;;;;;10221945;28;20042;-85
2023/07/26 15:05:54;;;;;;;13.45;3.47;;;;;;;;;;10223058;28;20055;-81
2023/07/26 15:10:55;;;;;;;18.08;3.65;;;;;;;;;;10203011;28;20035;-76
2023/07/26 15:15:55;;;;;;;11.13;3.33;;;;;;;;;;10209143;28;20031;-76
2023/07/26 15:20:55;;;;;;;16.02;3.95;;;;;;;;;;10215660;28;20039;-81
2023/07/26 15:25:55;;;;;;;15.43;4.15;;;;;;;;;;10196717;28;20040;-79
2023/07/26 15:30:56;;;;;;;12.48;3.60;;;;;;;;;;10211245;28;20120;-79
2023/07/26 15:35:56;;;;;;;8.82;3.17;;;;;;;;;;10228636;28;20031;-82
2023/07/26 15:40:57;;;;;;;22.08;3.78;;;;;;;;;;10225117;28;20035;-77
2023/07/26 15:45:57;;;;;;;10.13;3.70;;;;;;;;;;10209454;28;20376;-78
2023/07/26 15:50:58;;;;;;;13.38;3.75;;;;;;;;;;10201167;28;20040;-77
2023/07/26 15:55:58;;;;;;;15.02;4.00;;;;;;;;;;10211789;28;20039;-77
2023/07/26 16:00:59;;;;;;;14.48;4.22;;;;;;;;;;10220172;28;20038;-77
2023/07/26 16:05:59;;;;;;;12.10;4.05;;;;;;;;;;10223360;28;20075;-76
2023/07/26 16:10:59;;;;;;;27.98;4.47;;;;;;;;;;10233087;28;20023;-76
2023/07/26 16:16:00;;;;;;;28.42;5.22;;;;;;;;;;10207251;28;20031;-78
2023/07/26 16:21:00;;;;;;;19.17;4.80;;;;;;;;;;10228970;28;20039;-76
2023/07/26 16:26:00;;;;;;;20.00;5.90;;;;;;;;;;10220001;28;20031;-81
2023/07/26 16:31:02;;;;;;;15.32;5.43;;;;;;;;;;10204550;28;20407;-81
2023/07/26 16:36:02;;;;;;;24.40;6.47;;;;;;;;;;10223247;28;20042;-82
2023/07/26 16:41:03;;;;;;;19.40;6.57;;;;;;;;;;10207281;28;20538;-82
2023/07/26 16:46:03;;;;;;;25.70;8.70;;;;;;;;;;10212043;28;20033;-79
2023/07/26 16:51:05;;;;;;;24.83;8.00;;;;;;;;;;10218774;28;20023;-79
2023/07/26 16:56:05;;;;;;;18.48;7.40;;;;;;;;;;10220792;28;20019;-86
2023/07/26 17:01:06;;;;;;;18.25;8.00;;;;;;;;;;10214352;28;20032;-80
2023/07/26 17:06:07;;;;;;;17.67;8.55;;;;;;;;;;10232000;28;20047;-83
2023/07/26 17:11:07;;;;;;;16.10;7.47;;;;;;;;;;10217589;28;20066;-83
2023/07/26 17:16:14;;;;;;;16.77;7.57;;;;;;;;;;10197713;28;20039;-83
2023/07/26 17:21:14;;;;;;;17.55;7.43;;;;;;;;;;10203871;28;20306;-79
2023/07/26 17:26:16;;;;;;;14.65;7.43;;;;;;;;;;10199289;28;20045;-82
2023/07/26 17:31:18;;;;;;;19.55;8.18;;;;;;;;;;10202222;28;20039;-80
2023/07/26 17:36:19;;;;;;;13.77;7.13;;;;;;;;;;10219941;28;20023;-78
2023/07/26 17:41:19;;;;;;;15.57;8.43;;;;;;;;;;10220957;28;20038;-84
2023/07/26 17:46:20;;;;;;;13.93;6.72;;;;;;;;;;10215886;28;20150;-83
2023/07/26 17:51:23;;;;;;;16.27;8.70;;;;;;;;;;10219064;28;20023;-82
2023/07/26 17:56:23;;;;;;;13.05;7.95;;;;;;;;;;10218516;28;20023;-77
2023/07/26 18:01:23;;;;;;;16.63;7.03;;;;;;;;;;10216183;28;20034;-83
2023/07/26 18:06:24;;;;;;;13.95;7.55;;;;;;;;;;10159794;28;1553257;-81
2023/07/26 18:11:24;;;;;;;15.13;7.93;;;;;;;;;;10224579;28;20040;-83
2023/07/26 18:16:24;;;;;;;16.35;7.30;;;;;;;;;;10213464;28;20030;-78
2023/07/26 18:21:24;;;;;;;20.00;7.87;;;;;;;;;;10221684;28;20551;-82
2023/07/26 18:26:25;;;;;;;12.18;6.90;;;;;;;;;;10225981;28;20500;-78
2023/07/26 18:31:25;;;;;;;16.02;6.68;;;;;;;;;;10229602;28;20023;-77
2023/07/26 18:36:25;;;;;;;17.07;7.70;;;;;;;;;;10234063;28;20027;-79
2023/07/26 18:41:26;;;;;;;14.13;7.13;;;;;;;;;;10217284;28;20042;-83
2023/07/26 18:46:26;;;;;;;12.20;7.38;;;;;;;;;;10215469;28;20043;-82
2023/07/26 18:51:27;;;;;;;15.07;7.23;;;;;;;;;;10229890;28;20031;-87
2023/07/26 18:56:27;;;;;;;14.27;8.13;;;;;;;;;;10209813;28;20259;-78
2023/07/26 19:01:27;;;;;;;10.90;7.28;;;;;;;;;;10226053;28;20035;-77
2023/07/26 19:06:30;;;;;;;13.50;7.75;;;;;;;;;;10219417;28;20388;-83
2023/07/26 19:11:30;;;;;;;11.15;7.13;;;;;;;;;;10224688;28;20585;-78
2023/07/26 19:16:33;;;;;;;13.23;7.63;;;;;;;;;;10217138;28;20035;-84
2023/07/26 19:21:38;;;;;;;16.77;8.45;;;;;;;;;;10224838;28;20480;-86
2023/07/26 19:26:48;;;;;;;15.88;7.55;;;;;;;;;;10243798;28;20039;-85
2023/07/26 19:31:56;;;;;;;14.93;7.70;;;;;;;;;;10249795;28;20042;-82
2023/07/26 19:36:57;;;;;;;12.25;7.38;;;;;;;;;;10251618;28;20412;-80
2023/07/26 19:41:57;;;;;;;15.50;7.57;;;;;;;;;;10221852;28;20035;-81
2023/07/26 19:46:58;;;;;;;14.30;7.40;;;;;;;;;;10217210;28;20194;-82
2023/07/26 19:52:17;;;;;;;12.75;7.53;;;;;;;;;;10221963;28;20062;-86
2023/07/26 19:57:18;;;;;;;14.15;7.22;;;;;;;;;;10244558;28;20035;-82
2023/07/26 20:02:22;;;;;;;14.35;7.53;;;;;;;;;;10207821;28;20404;-81
2023/07/26 20:07:24;;;;;;;12.80;8.82;;;;;;;;;;10237467;28;20126;-79
2023/07/26 20:12:32;;;;;;;13.48;8.13;;;;;;;;;;10232832;28;20123;-83
2023/07/26 20:17:35;;;;;;;14.77;7.93;;;;;;;;;;10197673;28;20035;-84
2023/07/26 20:22:38;;;;;;;13.15;8.57;;;;;;;;;;10221679;28;20055;-84
2023/07/26 20:27:38;;;;;;;15.30;9.68;;;;;;;;;;10217340;28;20039;-82
2023/07/26 20:32:45;;;;;;;16.73;9.57;;;;;;;;;;10217722;28;20445;-85
2023/07/26 20:37:47;;;;;;;17.67;9.70;;;;;;;;;;10214152;28;20034;-82
2023/07/26 20:42:47;;;;;;;14.50;9.23;;;;;;;;;;10225598;28;20035;-80
2023/07/26 20:47:48;;;;;;;18.85;10.50;;;;;;;;;;10215591;28;20023;-80
2023/07/26 20:52:54;;;;;;;14.93;9.23;;;;;;;;;;10221066;28;20036;-80
2023/07/26 20:57:54;;;;;;;15.35;9.80;;;;;;;;;;10212492;28;20573;-79
2023/07/26 21:03:01;;;;;;;15.45;9.75;;;;;;;;;;10218101;28;20031;-83
2023/07/26 21:08:03;;;;;;;13.18;8.70;;;;;;;;;;10217885;28;20055;-82
2023/07/26 21:13:04;;;;;;;13.27;9.25;;;;;;;;;;10229265;28;20031;-80
2023/07/26 21:18:04;;;;;;;15.90;10.18;;;;;;;;;;10237321;28;20078;-78
2023/07/26 21:23:04;;;;;;;12.93;9.17;;;;;;;;;;10209937;29;20057;-78
2023/07/26 21:28:05;;;;;;;13.98;9.20;;;;;;;;;;10226476;29;20033;-79
2023/07/26 21:33:06;;;;;;;14.63;8.88;;;;;;;;;;10228154;28;20030;-78
2023/07/26 21:38:07;;;;;;;16.15;8.52;;;;;;;;;;10226352;28;20498;-79
2023/07/26 21:43:07;;;;;;;12.95;8.70;;;;;;;;;;10222600;28;20031;-87
2023/07/26 21:48:10;;;;;;;13.20;7.68;;;;;;;;;;10213258;28;20023;-83
2023/07/26 21:53:11;;;;;;;11.20;6.85;;;;;;;;;;10212802;29;20482;-79
2023/07/26 21:58:13;;;;;;;11.38;7.38;;;;;;;;;;10213617;28;20514;-78
2023/07/26 22:03:14;;;;;;;12.30;6.50;;;;;;;;;;10209400;28;20036;-80
2023/07/26 22:08:17;;;;;;;10.82;6.55;;;;;;;;;;10221194;28;20401;-81
2023/07/26 22:13:18;;;;;;;11.70;7.13;;;;;;;;;;10208130;28;20067;-77
2023/07/26 22:18:18;;;;;;;10.90;7.13;;;;;;;;;;10229572;28;20036;-81
2023/07/26 22:23:19;;;;;;;8.30;5.93;;;;;;;;;;10233533;28;20148;-82
2023/07/26 22:28:20;;;;;;;9.93;6.18;;;;;;;;;;10217878;28;20182;-82
2023/07/26 22:33:21;;;;;;;10.95;7.15;;;;;;;;;;10238092;28;20547;-80
2023/07/26 22:38:22;;;;;;;8.60;6.07;;;;;;;;;;10219482;29;20031;-81
2023/07/26 22:43:23;;;;;;;10.30;7.07;;;;;;;;;;10218551;28;20093;-81
2023/07/26 22:48:23;;;;;;;8.67;6.57;;;;;;;;;;10232119;28;20081;-79
2023/07/26 22:53:23;;;;;;;11.23;8.32;;;;;;;;;;10240687;28;20102;-80
2023/07/26 22:58:24;;;;;;;10.95;7.38;;;;;;;;;;10231412;28;20027;-82
2023/07/26 23:03:26;;;;;;;11.02;7.82;;;;;;;;;;10207155;28;20035;-83
2023/07/26 23:08:27;;;;;;;17.05;8.75;;;;;;;;;;10220363;28;20592;-81
2023/07/26 23:13:28;;;;;;;14.18;8.73;;;;;;;;;;10221929;28;20039;-82
2023/07/26 23:18:29;;;;;;;14.15;8.70;;;;;;;;;;10239457;28;20095;-80
2023/07/26 23:23:30;;;;;;;17.15;9.07;;;;;;;;;;10216037;29;20023;-80
2023/07/26 23:28:30;;;;;;;14.40;9.40;;;;;;;;;;10218885;28;20027;-83
2023/07/26 23:33:31;;;;;;;11.63;8.98;;;;;;;;;;10235340;28;20450;-83
2023/07/26 23:38:31;;;;;;;19.25;10.43;;;;;;;;;;10213323;28;20031;-80
2023/07/26 23:43:32;;;;;;;15.13;9.80;;;;;;;;;;10205039;29;20038;-80
2023/07/26 23:48:37;;;;;;;16.87;11.40;;;;;;;;;;10202009;28;20031;-84
2023/07/26 23:53:38;;;;;;;14.93;10.32;;;;;;;;;;10204227;28;20051;-80
2023/07/26 23:58:40;;;;;;;14.00;10.38;;;;;;;;;;10232811;28;20038;-82
